sensor_id;sensor_type;location;lat;lon;timestamp;P1;durP1;ratioP1;P2;durP2;ratioP2
2906;SDS011;1463;51.070;16.998;2023-06-22T00:01:47;12.70;;;7.77;;
2906;SDS011;1463;51.070;16.998;2023-06-22T00:04:14;13.17;;;7.50;;
2906;SDS011;1463;51.070;16.998;2023-06-22T00:06:42;9.67;;;7.83;;
2906;SDS011;1463;51.070;16.998;2023-06-22T00:09:09;11.30;;;8.03;;
2906;SDS011;1463;51.070;16.998;2023-06-22T00:11:37;12.07;;;8.30;;
2906;SDS011;1463;51.070;16.998;2023-06-22T00:14:04;12.23;;;8.33;;
2906;SDS011;1463;51.070;16.998;2023-06-22T00:16:34;13.30;;;7.93;;
2906;SDS011;1463;51.070;16.998;2023-06-22T00:19:01;10.27;;;8.47;;
2906;SDS011;1463;51.070;16.998;2023-06-22T00:21:29;10.70;;;8.97;;
2906;SDS011;1463;51.070;16.998;2023-06-22T00:23:57;11.30;;;7.97;;
2906;SDS011;1463;51.070;16.998;2023-06-22T00:26:25;11.17;;;8.20;;
2906;SDS011;1463;51.070;16.998;2023-06-22T00:28:52;15.03;;;8.10;;
2906;SDS011;1463;51.070;16.998;2023-06-22T00:31:20;12.83;;;9.27;;
2906;SDS011;1463;51.070;16.998;2023-06-22T00:33:49;10.17;;;8.27;;
2906;SDS011;1463;51.070;16.998;2023-06-22T00:36:16;11.40;;;8.43;;
2906;SDS011;1463;51.070;16.998;2023-06-22T00:38:44;11.00;;;8.20;;
2906;SDS011;1463;51.070;16.998;2023-06-22T00:41:12;12.67;;;8.40;;
2906;SDS011;1463;51.070;16.998;2023-06-22T00:43:39;14.60;;;7.93;;
2906;SDS011;1463;51.070;16.998;2023-06-22T00:46:07;12.17;;;7.90;;
2906;SDS011;1463;51.070;16.998;2023-06-22T00:48:35;12.07;;;9.13;;
2906;SDS011;1463;51.070;16.998;2023-06-22T00:51:04;11.47;;;9.77;;
2906;SDS011;1463;51.070;16.998;2023-06-22T00:53:32;12.77;;;8.20;;
2906;SDS011;1463;51.070;16.998;2023-06-22T00:56:02;12.27;;;9.07;;
2906;SDS011;1463;51.070;16.998;2023-06-22T00:58:31;11.03;;;7.70;;
2906;SDS011;1463;51.070;16.998;2023-06-22T01:00:58;10.77;;;8.93;;
2906;SDS011;1463;51.070;16.998;2023-06-22T01:03:27;12.37;;;8.73;;
2906;SDS011;1463;51.070;16.998;2023-06-22T01:05:56;12.70;;;7.40;;
2906;SDS011;1463;51.070;16.998;2023-06-22T01:08:31;13.37;;;9.00;;
2906;SDS011;1463;51.070;16.998;2023-06-22T01:11:07;12.87;;;8.07;;
2906;SDS011;1463;51.070;16.998;2023-06-22T01:13:40;11.70;;;8.70;;
2906;SDS011;1463;51.070;16.998;2023-06-22T01:16:12;10.17;;;7.77;;
2906;SDS011;1463;51.070;16.998;2023-06-22T01:18:44;13.10;;;9.23;;
2906;SDS011;1463;51.070;16.998;2023-06-22T01:21:14;11.50;;;8.27;;
2906;SDS011;1463;51.070;16.998;2023-06-22T01:23:50;10.90;;;9.27;;
2906;SDS011;1463;51.070;16.998;2023-06-22T01:26:29;10.20;;;8.07;;
2906;SDS011;1463;51.070;16.998;2023-06-22T01:29:05;12.03;;;9.10;;
2906;SDS011;1463;51.070;16.998;2023-06-22T01:31:34;11.20;;;7.83;;
2906;SDS011;1463;51.070;16.998;2023-06-22T01:34:02;11.60;;;7.90;;
2906;SDS011;1463;51.070;16.998;2023-06-22T01:36:33;13.30;;;8.90;;
2906;SDS011;1463;51.070;16.998;2023-06-22T01:39:01;12.70;;;8.50;;
2906;SDS011;1463;51.070;16.998;2023-06-22T01:41:34;11.00;;;8.90;;
2906;SDS011;1463;51.070;16.998;2023-06-22T01:44:05;10.50;;;8.07;;
2906;SDS011;1463;51.070;16.998;2023-06-22T01:46:34;9.33;;;7.27;;
2906;SDS011;1463;51.070;16.998;2023-06-22T01:49:02;11.60;;;8.73;;
2906;SDS011;1463;51.070;16.998;2023-06-22T01:51:31;11.57;;;8.50;;
2906;SDS011;1463;51.070;16.998;2023-06-22T01:53:59;14.00;;;8.57;;
2906;SDS011;1463;51.070;16.998;2023-06-22T01:56:27;10.30;;;8.67;;
2906;SDS011;1463;51.070;16.998;2023-06-22T01:58:57;10.47;;;8.17;;
2906;SDS011;1463;51.070;16.998;2023-06-22T02:01:35;13.17;;;8.00;;
2906;SDS011;1463;51.070;16.998;2023-06-22T02:04:08;12.27;;;9.30;;
2906;SDS011;1463;51.070;16.998;2023-06-22T02:06:42;12.20;;;7.20;;
2906;SDS011;1463;51.070;16.998;2023-06-22T02:09:12;10.50;;;7.50;;
2906;SDS011;1463;51.070;16.998;2023-06-22T02:11:42;11.03;;;7.57;;
2906;SDS011;1463;51.070;16.998;2023-06-22T02:14:15;10.00;;;7.63;;
2906;SDS011;1463;51.070;16.998;2023-06-22T02:16:44;10.97;;;8.37;;
2906;SDS011;1463;51.070;16.998;2023-06-22T02:19:12;13.03;;;7.90;;
2906;SDS011;1463;51.070;16.998;2023-06-22T02:21:43;19.63;;;7.90;;
2906;SDS011;1463;51.070;16.998;2023-06-22T02:24:11;11.27;;;8.47;;
2906;SDS011;1463;51.070;16.998;2023-06-22T02:26:38;12.77;;;9.60;;
2906;SDS011;1463;51.070;16.998;2023-06-22T02:29:07;9.47;;;8.40;;
2906;SDS011;1463;51.070;16.998;2023-06-22T02:31:35;12.43;;;8.57;;
2906;SDS011;1463;51.070;16.998;2023-06-22T02:34:04;12.20;;;9.40;;
2906;SDS011;1463;51.070;16.998;2023-06-22T02:36:31;13.20;;;7.63;;
2906;SDS011;1463;51.070;16.998;2023-06-22T02:38:59;15.03;;;8.40;;
2906;SDS011;1463;51.070;16.998;2023-06-22T02:41:29;10.20;;;8.13;;
2906;SDS011;1463;51.070;16.998;2023-06-22T02:43:56;11.67;;;8.60;;
2906;SDS011;1463;51.070;16.998;2023-06-22T02:46:23;12.73;;;8.23;;
2906;SDS011;1463;51.070;16.998;2023-06-22T02:48:51;11.27;;;8.30;;
2906;SDS011;1463;51.070;16.998;2023-06-22T02:51:20;9.73;;;8.33;;
2906;SDS011;1463;51.070;16.998;2023-06-22T02:53:48;13.47;;;8.87;;
2906;SDS011;1463;51.070;16.998;2023-06-22T02:56:17;12.33;;;8.23;;
2906;SDS011;1463;51.070;16.998;2023-06-22T02:58:50;11.93;;;8.87;;
2906;SDS011;1463;51.070;16.998;2023-06-22T03:01:17;12.00;;;8.60;;
2906;SDS011;1463;51.070;16.998;2023-06-22T03:03:49;13.10;;;8.97;;
2906;SDS011;1463;51.070;16.998;2023-06-22T03:06:16;13.00;;;8.10;;
2906;SDS011;1463;51.070;16.998;2023-06-22T03:08:49;11.27;;;8.80;;
2906;SDS011;1463;51.070;16.998;2023-06-22T03:11:17;12.30;;;8.70;;
2906;SDS011;1463;51.070;16.998;2023-06-22T03:13:44;10.63;;;8.00;;
2906;SDS011;1463;51.070;16.998;2023-06-22T03:16:12;10.63;;;7.90;;
2906;SDS011;1463;51.070;16.998;2023-06-22T03:18:40;11.87;;;9.00;;
2906;SDS011;1463;51.070;16.998;2023-06-22T03:21:07;14.50;;;9.13;;
2906;SDS011;1463;51.070;16.998;2023-06-22T03:23:35;14.83;;;9.23;;
2906;SDS011;1463;51.070;16.998;2023-06-22T03:26:04;9.83;;;8.17;;
2906;SDS011;1463;51.070;16.998;2023-06-22T03:28:31;12.80;;;8.60;;
2906;SDS011;1463;51.070;16.998;2023-06-22T03:30:59;11.70;;;8.17;;
2906;SDS011;1463;51.070;16.998;2023-06-22T03:33:26;12.87;;;9.17;;
2906;SDS011;1463;51.070;16.998;2023-06-22T03:35:54;15.57;;;7.43;;
2906;SDS011;1463;51.070;16.998;2023-06-22T03:38:22;11.33;;;8.50;;
2906;SDS011;1463;51.070;16.998;2023-06-22T03:40:50;11.97;;;8.27;;
2906;SDS011;1463;51.070;16.998;2023-06-22T03:43:19;11.00;;;9.60;;
2906;SDS011;1463;51.070;16.998;2023-06-22T03:45:46;12.33;;;8.97;;
2906;SDS011;1463;51.070;16.998;2023-06-22T03:48:14;14.30;;;8.83;;
2906;SDS011;1463;51.070;16.998;2023-06-22T03:50:41;15.83;;;9.60;;
2906;SDS011;1463;51.070;16.998;2023-06-22T03:53:09;11.80;;;8.13;;
2906;SDS011;1463;51.070;16.998;2023-06-22T03:55:42;11.67;;;8.07;;
2906;SDS011;1463;51.070;16.998;2023-06-22T03:58:15;11.83;;;8.30;;
2906;SDS011;1463;51.070;16.998;2023-06-22T04:00:46;12.37;;;9.30;;
2906;SDS011;1463;51.070;16.998;2023-06-22T04:03:13;13.37;;;10.00;;
2906;SDS011;1463;51.070;16.998;2023-06-22T04:05:41;10.87;;;8.07;;
2906;SDS011;1463;51.070;16.998;2023-06-22T04:08:09;11.73;;;8.83;;
2906;SDS011;1463;51.070;16.998;2023-06-22T04:10:37;12.90;;;8.03;;
2906;SDS011;1463;51.070;16.998;2023-06-22T04:13:04;15.70;;;10.17;;
2906;SDS011;1463;51.070;16.998;2023-06-22T04:15:31;14.10;;;8.70;;
2906;SDS011;1463;51.070;16.998;2023-06-22T04:18:00;12.00;;;8.50;;
2906;SDS011;1463;51.070;16.998;2023-06-22T04:20:28;10.43;;;8.43;;
2906;SDS011;1463;51.070;16.998;2023-06-22T04:22:56;12.53;;;8.87;;
2906;SDS011;1463;51.070;16.998;2023-06-22T04:25:24;15.90;;;9.87;;
2906;SDS011;1463;51.070;16.998;2023-06-22T04:27:51;12.10;;;9.33;;
2906;SDS011;1463;51.070;16.998;2023-06-22T04:30:19;12.30;;;8.70;;
2906;SDS011;1463;51.070;16.998;2023-06-22T04:32:46;13.57;;;9.87;;
2906;SDS011;1463;51.070;16.998;2023-06-22T04:35:24;16.90;;;9.60;;
2906;SDS011;1463;51.070;16.998;2023-06-22T04:37:53;15.13;;;9.73;;
2906;SDS011;1463;51.070;16.998;2023-06-22T04:40:22;13.40;;;10.50;;
2906;SDS011;1463;51.070;16.998;2023-06-22T04:42:50;12.10;;;9.07;;
2906;SDS011;1463;51.070;16.998;2023-06-22T04:45:19;14.63;;;10.33;;
2906;SDS011;1463;51.070;16.998;2023-06-22T04:47:47;14.77;;;9.77;;
2906;SDS011;1463;51.070;16.998;2023-06-22T04:50:15;15.43;;;10.67;;
2906;SDS011;1463;51.070;16.998;2023-06-22T04:52:44;11.60;;;9.10;;
2906;SDS011;1463;51.070;16.998;2023-06-22T04:55:12;14.27;;;10.00;;
2906;SDS011;1463;51.070;16.998;2023-06-22T04:57:43;16.17;;;10.77;;
2906;SDS011;1463;51.070;16.998;2023-06-22T05:00:14;12.90;;;9.50;;
2906;SDS011;1463;51.070;16.998;2023-06-22T05:02:43;12.27;;;8.50;;
2906;SDS011;1463;51.070;16.998;2023-06-22T05:05:11;16.20;;;10.80;;
2906;SDS011;1463;51.070;16.998;2023-06-22T05:07:40;13.87;;;10.43;;
2906;SDS011;1463;51.070;16.998;2023-06-22T05:10:11;16.93;;;11.37;;
2906;SDS011;1463;51.070;16.998;2023-06-22T05:12:39;14.53;;;11.60;;
2906;SDS011;1463;51.070;16.998;2023-06-22T05:15:08;15.90;;;11.30;;
2906;SDS011;1463;51.070;16.998;2023-06-22T05:17:36;16.57;;;11.07;;
2906;SDS011;1463;51.070;16.998;2023-06-22T05:20:10;17.63;;;11.90;;
2906;SDS011;1463;51.070;16.998;2023-06-22T05:22:39;15.83;;;11.43;;
2906;SDS011;1463;51.070;16.998;2023-06-22T05:25:08;14.90;;;10.80;;
2906;SDS011;1463;51.070;16.998;2023-06-22T05:27:38;15.27;;;10.30;;
2906;SDS011;1463;51.070;16.998;2023-06-22T05:30:06;14.83;;;10.40;;
2906;SDS011;1463;51.070;16.998;2023-06-22T05:32:34;15.20;;;11.03;;
2906;SDS011;1463;51.070;16.998;2023-06-22T05:35:01;14.90;;;9.93;;
2906;SDS011;1463;51.070;16.998;2023-06-22T05:37:29;15.20;;;11.50;;
2906;SDS011;1463;51.070;16.998;2023-06-22T05:39:57;13.40;;;9.23;;
2906;SDS011;1463;51.070;16.998;2023-06-22T05:42:25;16.60;;;9.77;;
2906;SDS011;1463;51.070;16.998;2023-06-22T05:44:53;15.83;;;10.20;;
2906;SDS011;1463;51.070;16.998;2023-06-22T05:47:20;14.60;;;9.77;;
2906;SDS011;1463;51.070;16.998;2023-06-22T05:49:48;12.13;;;8.50;;
2906;SDS011;1463;51.070;16.998;2023-06-22T05:52:15;10.93;;;7.63;;
2906;SDS011;1463;51.070;16.998;2023-06-22T05:54:43;10.00;;;7.00;;
2906;SDS011;1463;51.070;16.998;2023-06-22T05:57:10;9.17;;;6.73;;
2906;SDS011;1463;51.070;16.998;2023-06-22T05:59:39;9.43;;;7.47;;
2906;SDS011;1463;51.070;16.998;2023-06-22T06:02:06;13.60;;;8.70;;
2906;SDS011;1463;51.070;16.998;2023-06-22T06:04:34;6.37;;;5.53;;
2906;SDS011;1463;51.070;16.998;2023-06-22T06:07:01;8.53;;;6.30;;
2906;SDS011;1463;51.070;16.998;2023-06-22T06:09:29;9.53;;;6.63;;
2906;SDS011;1463;51.070;16.998;2023-06-22T06:11:57;10.83;;;6.53;;
2906;SDS011;1463;51.070;16.998;2023-06-22T06:14:24;9.57;;;6.83;;
2906;SDS011;1463;51.070;16.998;2023-06-22T06:16:53;7.00;;;5.70;;
2906;SDS011;1463;51.070;16.998;2023-06-22T06:19:20;8.00;;;6.20;;
2906;SDS011;1463;51.070;16.998;2023-06-22T06:21:48;8.37;;;6.47;;
2906;SDS011;1463;51.070;16.998;2023-06-22T06:24:15;9.50;;;7.07;;
2906;SDS011;1463;51.070;16.998;2023-06-22T06:26:43;9.97;;;6.40;;
2906;SDS011;1463;51.070;16.998;2023-06-22T06:29:10;7.60;;;6.47;;
2906;SDS011;1463;51.070;16.998;2023-06-22T06:31:37;10.33;;;7.30;;
2906;SDS011;1463;51.070;16.998;2023-06-22T06:34:07;10.17;;;6.53;;
2906;SDS011;1463;51.070;16.998;2023-06-22T06:36:34;9.33;;;5.67;;
2906;SDS011;1463;51.070;16.998;2023-06-22T06:39:02;11.10;;;7.90;;
2906;SDS011;1463;51.070;16.998;2023-06-22T06:41:30;7.90;;;6.57;;
2906;SDS011;1463;51.070;16.998;2023-06-22T06:43:58;10.10;;;6.20;;
2906;SDS011;1463;51.070;16.998;2023-06-22T06:46:26;6.07;;;5.20;;
2906;SDS011;1463;51.070;16.998;2023-06-22T06:48:53;11.83;;;7.43;;
2906;SDS011;1463;51.070;16.998;2023-06-22T06:51:22;8.90;;;6.30;;
2906;SDS011;1463;51.070;16.998;2023-06-22T06:53:49;10.90;;;7.97;;
2906;SDS011;1463;51.070;16.998;2023-06-22T06:56:17;9.53;;;6.40;;
2906;SDS011;1463;51.070;16.998;2023-06-22T06:58:44;9.30;;;6.60;;
2906;SDS011;1463;51.070;16.998;2023-06-22T07:01:12;8.83;;;6.20;;
2906;SDS011;1463;51.070;16.998;2023-06-22T07:03:39;7.90;;;5.63;;
2906;SDS011;1463;51.070;16.998;2023-06-22T07:06:07;10.67;;;6.07;;
2906;SDS011;1463;51.070;16.998;2023-06-22T07:08:36;8.60;;;6.63;;
2906;SDS011;1463;51.070;16.998;2023-06-22T07:11:05;9.77;;;5.90;;
2906;SDS011;1463;51.070;16.998;2023-06-22T07:13:32;7.80;;;5.57;;
2906;SDS011;1463;51.070;16.998;2023-06-22T07:16:00;7.90;;;6.43;;
2906;SDS011;1463;51.070;16.998;2023-06-22T07:18:27;7.73;;;6.10;;
2906;SDS011;1463;51.070;16.998;2023-06-22T07:20:55;10.20;;;6.70;;
2906;SDS011;1463;51.070;16.998;2023-06-22T07:23:23;11.37;;;6.93;;
2906;SDS011;1463;51.070;16.998;2023-06-22T07:25:51;9.30;;;7.20;;
2906;SDS011;1463;51.070;16.998;2023-06-22T07:28:19;7.50;;;6.63;;
2906;SDS011;1463;51.070;16.998;2023-06-22T07:30:46;10.73;;;6.90;;
2906;SDS011;1463;51.070;16.998;2023-06-22T07:33:14;9.80;;;6.93;;
2906;SDS011;1463;51.070;16.998;2023-06-22T07:35:42;9.50;;;7.43;;
2906;SDS011;1463;51.070;16.998;2023-06-22T07:38:12;11.63;;;6.97;;
2906;SDS011;1463;51.070;16.998;2023-06-22T07:40:40;9.67;;;6.70;;
2906;SDS011;1463;51.070;16.998;2023-06-22T07:43:09;10.20;;;7.20;;
2906;SDS011;1463;51.070;16.998;2023-06-22T07:45:37;10.30;;;7.83;;
2906;SDS011;1463;51.070;16.998;2023-06-22T07:48:05;9.10;;;6.70;;
2906;SDS011;1463;51.070;16.998;2023-06-22T07:50:33;9.00;;;6.93;;
2906;SDS011;1463;51.070;16.998;2023-06-22T07:53:00;9.60;;;7.13;;
2906;SDS011;1463;51.070;16.998;2023-06-22T07:55:28;9.77;;;7.00;;
2906;SDS011;1463;51.070;16.998;2023-06-22T07:57:55;11.07;;;7.47;;
2906;SDS011;1463;51.070;16.998;2023-06-22T08:00:24;10.57;;;7.90;;
2906;SDS011;1463;51.070;16.998;2023-06-22T08:02:52;11.00;;;6.93;;
2906;SDS011;1463;51.070;16.998;2023-06-22T08:05:20;10.13;;;7.07;;
2906;SDS011;1463;51.070;16.998;2023-06-22T08:07:47;10.23;;;7.07;;
2906;SDS011;1463;51.070;16.998;2023-06-22T08:10:15;8.57;;;7.23;;
2906;SDS011;1463;51.070;16.998;2023-06-22T08:12:43;10.20;;;7.93;;
2906;SDS011;1463;51.070;16.998;2023-06-22T08:15:10;9.33;;;7.63;;
2906;SDS011;1463;51.070;16.998;2023-06-22T08:17:39;9.50;;;6.43;;
2906;SDS011;1463;51.070;16.998;2023-06-22T08:20:07;11.60;;;7.70;;
2906;SDS011;1463;51.070;16.998;2023-06-22T08:22:37;13.30;;;8.07;;
2906;SDS011;1463;51.070;16.998;2023-06-22T08:25:05;10.07;;;7.40;;
2906;SDS011;1463;51.070;16.998;2023-06-22T08:27:33;9.30;;;6.70;;
2906;SDS011;1463;51.070;16.998;2023-06-22T08:30:01;10.23;;;7.17;;
2906;SDS011;1463;51.070;16.998;2023-06-22T08:32:29;10.57;;;7.50;;
2906;SDS011;1463;51.070;16.998;2023-06-22T08:34:59;11.00;;;6.87;;
2906;SDS011;1463;51.070;16.998;2023-06-22T08:37:27;10.10;;;6.90;;
2906;SDS011;1463;51.070;16.998;2023-06-22T08:39:56;15.53;;;8.90;;
2906;SDS011;1463;51.070;16.998;2023-06-22T08:42:25;10.87;;;7.90;;
2906;SDS011;1463;51.070;16.998;2023-06-22T08:44:52;10.43;;;7.97;;
2906;SDS011;1463;51.070;16.998;2023-06-22T08:47:20;10.57;;;7.33;;
2906;SDS011;1463;51.070;16.998;2023-06-22T08:49:48;10.23;;;7.60;;
2906;SDS011;1463;51.070;16.998;2023-06-22T08:52:17;9.37;;;7.53;;
2906;SDS011;1463;51.070;16.998;2023-06-22T08:54:45;9.90;;;7.80;;
2906;SDS011;1463;51.070;16.998;2023-06-22T08:57:12;12.93;;;7.67;;
2906;SDS011;1463;51.070;16.998;2023-06-22T08:59:41;9.70;;;7.07;;
2906;SDS011;1463;51.070;16.998;2023-06-22T09:02:12;10.30;;;7.87;;
2906;SDS011;1463;51.070;16.998;2023-06-22T09:04:39;12.67;;;8.70;;
2906;SDS011;1463;51.070;16.998;2023-06-22T09:07:07;10.60;;;7.50;;
2906;SDS011;1463;51.070;16.998;2023-06-22T09:09:36;9.80;;;7.30;;
2906;SDS011;1463;51.070;16.998;2023-06-22T09:12:04;8.57;;;6.80;;
2906;SDS011;1463;51.070;16.998;2023-06-22T09:14:33;11.87;;;7.73;;
2906;SDS011;1463;51.070;16.998;2023-06-22T09:17:00;10.07;;;8.20;;
2906;SDS011;1463;51.070;16.998;2023-06-22T09:19:28;10.33;;;7.50;;
2906;SDS011;1463;51.070;16.998;2023-06-22T09:21:55;8.60;;;6.30;;
2906;SDS011;1463;51.070;16.998;2023-06-22T09:24:23;10.17;;;7.17;;
2906;SDS011;1463;51.070;16.998;2023-06-22T09:29:42;9.93;;;6.87;;
2906;SDS011;1463;51.070;16.998;2023-06-22T09:32:10;8.57;;;7.07;;
2906;SDS011;1463;51.070;16.998;2023-06-22T09:34:38;7.57;;;5.93;;
2906;SDS011;1463;51.070;16.998;2023-06-22T09:37:09;7.90;;;6.40;;
2906;SDS011;1463;51.070;16.998;2023-06-22T09:39:36;9.43;;;6.63;;
2906;SDS011;1463;51.070;16.998;2023-06-22T09:42:04;7.20;;;5.50;;
2906;SDS011;1463;51.070;16.998;2023-06-22T09:44:34;9.23;;;6.47;;
2906;SDS011;1463;51.070;16.998;2023-06-22T09:47:02;8.03;;;6.77;;
2906;SDS011;1463;51.070;16.998;2023-06-22T09:49:30;8.40;;;6.13;;
2906;SDS011;1463;51.070;16.998;2023-06-22T09:51:57;8.10;;;6.03;;
2906;SDS011;1463;51.070;16.998;2023-06-22T09:54:25;9.87;;;6.60;;
2906;SDS011;1463;51.070;16.998;2023-06-22T09:56:53;8.43;;;6.03;;
2906;SDS011;1463;51.070;16.998;2023-06-22T09:59:20;8.70;;;6.67;;
2906;SDS011;1463;51.070;16.998;2023-06-22T10:01:49;6.67;;;5.77;;
2906;SDS011;1463;51.070;16.998;2023-06-22T10:04:16;8.97;;;6.40;;
2906;SDS011;1463;51.070;16.998;2023-06-22T10:06:44;8.73;;;6.07;;
2906;SDS011;1463;51.070;16.998;2023-06-22T10:09:11;9.50;;;5.77;;
2906;SDS011;1463;51.070;16.998;2023-06-22T10:11:39;13.30;;;6.83;;
2906;SDS011;1463;51.070;16.998;2023-06-22T10:14:06;10.10;;;6.67;;
2906;SDS011;1463;51.070;16.998;2023-06-22T10:16:35;7.00;;;5.30;;
2906;SDS011;1463;51.070;16.998;2023-06-22T10:19:04;7.53;;;5.53;;
2906;SDS011;1463;51.070;16.998;2023-06-22T10:21:32;8.07;;;5.73;;
2906;SDS011;1463;51.070;16.998;2023-06-22T10:24:00;6.73;;;5.50;;
2906;SDS011;1463;51.070;16.998;2023-06-22T10:26:31;7.00;;;5.03;;
2906;SDS011;1463;51.070;16.998;2023-06-22T10:28:59;10.83;;;6.40;;
2906;SDS011;1463;51.070;16.998;2023-06-22T10:31:27;7.00;;;6.00;;
2906;SDS011;1463;51.070;16.998;2023-06-22T10:33:54;6.50;;;5.30;;
2906;SDS011;1463;51.070;16.998;2023-06-22T10:36:24;9.90;;;5.37;;
2906;SDS011;1463;51.070;16.998;2023-06-22T10:38:51;7.63;;;4.87;;
2906;SDS011;1463;51.070;16.998;2023-06-22T10:41:20;9.27;;;5.30;;
2906;SDS011;1463;51.070;16.998;2023-06-22T10:43:48;8.40;;;5.30;;
2906;SDS011;1463;51.070;16.998;2023-06-22T10:46:15;7.67;;;5.53;;
2906;SDS011;1463;51.070;16.998;2023-06-22T10:48:43;6.10;;;5.37;;
2906;SDS011;1463;51.070;16.998;2023-06-22T10:51:10;9.10;;;6.17;;
2906;SDS011;1463;51.070;16.998;2023-06-22T10:53:39;7.10;;;5.70;;
2906;SDS011;1463;51.070;16.998;2023-06-22T10:56:07;8.07;;;5.57;;
2906;SDS011;1463;51.070;16.998;2023-06-22T10:58:34;5.93;;;4.90;;
2906;SDS011;1463;51.070;16.998;2023-06-22T11:01:02;8.07;;;4.90;;
2906;SDS011;1463;51.070;16.998;2023-06-22T11:03:29;6.83;;;4.80;;
2906;SDS011;1463;51.070;16.998;2023-06-22T11:05:56;7.47;;;5.20;;
2906;SDS011;1463;51.070;16.998;2023-06-22T11:08:24;7.10;;;5.47;;
2906;SDS011;1463;51.070;16.998;2023-06-22T11:10:53;6.83;;;5.30;;
2906;SDS011;1463;51.070;16.998;2023-06-22T11:13:20;6.80;;;4.73;;
2906;SDS011;1463;51.070;16.998;2023-06-22T11:15:47;8.73;;;5.50;;
2906;SDS011;1463;51.070;16.998;2023-06-22T11:18:15;5.70;;;4.50;;
2906;SDS011;1463;51.070;16.998;2023-06-22T11:20:42;7.20;;;5.47;;
2906;SDS011;1463;51.070;16.998;2023-06-22T11:23:10;7.00;;;5.30;;
2906;SDS011;1463;51.070;16.998;2023-06-22T11:25:38;7.33;;;5.53;;
2906;SDS011;1463;51.070;16.998;2023-06-22T11:28:09;6.80;;;5.03;;
2906;SDS011;1463;51.070;16.998;2023-06-22T11:30:36;6.80;;;5.47;;
2906;SDS011;1463;51.070;16.998;2023-06-22T11:33:04;5.43;;;4.13;;
2906;SDS011;1463;51.070;16.998;2023-06-22T11:35:31;6.70;;;5.00;;
2906;SDS011;1463;51.070;16.998;2023-06-22T11:37:59;6.90;;;5.50;;
2906;SDS011;1463;51.070;16.998;2023-06-22T11:40:28;7.60;;;5.00;;
2906;SDS011;1463;51.070;16.998;2023-06-22T11:42:56;5.87;;;5.03;;
2906;SDS011;1463;51.070;16.998;2023-06-22T11:45:25;6.97;;;5.83;;
2906;SDS011;1463;51.070;16.998;2023-06-22T11:47:53;6.80;;;5.50;;
2906;SDS011;1463;51.070;16.998;2023-06-22T11:50:20;5.40;;;4.63;;
2906;SDS011;1463;51.070;16.998;2023-06-22T11:52:48;8.00;;;5.17;;
2906;SDS011;1463;51.070;16.998;2023-06-22T11:55:15;6.70;;;4.70;;
2906;SDS011;1463;51.070;16.998;2023-06-22T11:57:51;5.63;;;4.70;;
2906;SDS011;1463;51.070;16.998;2023-06-22T12:00:20;6.53;;;4.70;;
2906;SDS011;1463;51.070;16.998;2023-06-22T12:02:50;6.57;;;5.40;;
2906;SDS011;1463;51.070;16.998;2023-06-22T12:05:18;7.00;;;4.90;;
2906;SDS011;1463;51.070;16.998;2023-06-22T12:07:47;6.47;;;4.93;;
2906;SDS011;1463;51.070;16.998;2023-06-22T12:10:15;6.50;;;4.87;;
2906;SDS011;1463;51.070;16.998;2023-06-22T12:12:42;6.17;;;4.97;;
2906;SDS011;1463;51.070;16.998;2023-06-22T12:15:10;4.40;;;3.63;;
2906;SDS011;1463;51.070;16.998;2023-06-22T12:17:38;7.83;;;5.27;;
2906;SDS011;1463;51.070;16.998;2023-06-22T12:20:07;5.80;;;4.07;;
2906;SDS011;1463;51.070;16.998;2023-06-22T12:22:35;5.90;;;4.70;;
2906;SDS011;1463;51.070;16.998;2023-06-22T12:25:04;7.50;;;4.73;;
2906;SDS011;1463;51.070;16.998;2023-06-22T12:27:32;5.50;;;4.57;;
2906;SDS011;1463;51.070;16.998;2023-06-22T12:29:59;5.83;;;4.50;;
2906;SDS011;1463;51.070;16.998;2023-06-22T12:32:27;5.00;;;4.17;;
2906;SDS011;1463;51.070;16.998;2023-06-22T12:34:55;5.50;;;4.00;;
2906;SDS011;1463;51.070;16.998;2023-06-22T12:37:25;6.20;;;4.37;;
2906;SDS011;1463;51.070;16.998;2023-06-22T12:39:53;5.90;;;4.20;;
2906;SDS011;1463;51.070;16.998;2023-06-22T12:42:22;7.00;;;4.10;;
2906;SDS011;1463;51.070;16.998;2023-06-22T12:44:49;5.33;;;4.00;;
2906;SDS011;1463;51.070;16.998;2023-06-22T12:47:16;5.23;;;4.13;;
2906;SDS011;1463;51.070;16.998;2023-06-22T12:49:45;6.77;;;4.60;;
2906;SDS011;1463;51.070;16.998;2023-06-22T12:52:12;5.53;;;4.00;;
2906;SDS011;1463;51.070;16.998;2023-06-22T12:54:41;5.00;;;3.90;;
2906;SDS011;1463;51.070;16.998;2023-06-22T12:57:09;5.53;;;3.73;;
2906;SDS011;1463;51.070;16.998;2023-06-22T12:59:36;5.40;;;4.20;;
2906;SDS011;1463;51.070;16.998;2023-06-22T13:02:04;6.77;;;4.07;;
2906;SDS011;1463;51.070;16.998;2023-06-22T13:04:31;6.97;;;4.07;;
2906;SDS011;1463;51.070;16.998;2023-06-22T13:06:59;5.83;;;3.90;;
2906;SDS011;1463;51.070;16.998;2023-06-22T13:09:27;4.30;;;3.30;;
2906;SDS011;1463;51.070;16.998;2023-06-22T13:11:56;4.57;;;3.30;;
2906;SDS011;1463;51.070;16.998;2023-06-22T13:14:24;5.37;;;4.00;;
2906;SDS011;1463;51.070;16.998;2023-06-22T13:16:51;4.83;;;3.37;;
2906;SDS011;1463;51.070;16.998;2023-06-22T13:19:18;5.83;;;4.13;;
2906;SDS011;1463;51.070;16.998;2023-06-22T13:21:46;4.47;;;3.60;;
2906;SDS011;1463;51.070;16.998;2023-06-22T13:24:13;5.47;;;3.73;;
2906;SDS011;1463;51.070;16.998;2023-06-22T13:26:41;5.83;;;4.03;;
2906;SDS011;1463;51.070;16.998;2023-06-22T13:29:10;5.50;;;3.87;;
2906;SDS011;1463;51.070;16.998;2023-06-22T13:31:37;6.10;;;4.30;;
2906;SDS011;1463;51.070;16.998;2023-06-22T13:34:05;4.93;;;4.00;;
2906;SDS011;1463;51.070;16.998;2023-06-22T13:36:32;5.60;;;4.30;;
2906;SDS011;1463;51.070;16.998;2023-06-22T13:39:00;5.83;;;3.40;;
2906;SDS011;1463;51.070;16.998;2023-06-22T13:41:28;5.87;;;3.90;;
2906;SDS011;1463;51.070;16.998;2023-06-22T13:43:56;5.30;;;3.70;;
2906;SDS011;1463;51.070;16.998;2023-06-22T13:46:25;4.33;;;3.00;;
2906;SDS011;1463;51.070;16.998;2023-06-22T13:48:52;6.00;;;3.70;;
2906;SDS011;1463;51.070;16.998;2023-06-22T13:51:20;4.80;;;3.50;;
2906;SDS011;1463;51.070;16.998;2023-06-22T13:53:47;5.10;;;3.40;;
2906;SDS011;1463;51.070;16.998;2023-06-22T13:56:14;6.13;;;3.90;;
2906;SDS011;1463;51.070;16.998;2023-06-22T13:58:42;6.27;;;3.90;;
2906;SDS011;1463;51.070;16.998;2023-06-22T14:01:09;5.40;;;3.37;;
2906;SDS011;1463;51.070;16.998;2023-06-22T14:03:39;7.33;;;4.53;;
2906;SDS011;1463;51.070;16.998;2023-06-22T14:06:06;5.63;;;4.13;;
2906;SDS011;1463;51.070;16.998;2023-06-22T14:08:35;5.73;;;3.77;;
2906;SDS011;1463;51.070;16.998;2023-06-22T14:11:04;6.70;;;4.13;;
2906;SDS011;1463;51.070;16.998;2023-06-22T14:13:33;5.10;;;4.10;;
2906;SDS011;1463;51.070;16.998;2023-06-22T14:16:00;4.17;;;3.13;;
2906;SDS011;1463;51.070;16.998;2023-06-22T14:18:29;5.47;;;4.00;;
2906;SDS011;1463;51.070;16.998;2023-06-22T14:20:58;6.60;;;4.03;;
2906;SDS011;1463;51.070;16.998;2023-06-22T14:23:25;5.77;;;4.50;;
2906;SDS011;1463;51.070;16.998;2023-06-22T14:25:53;5.50;;;4.53;;
2906;SDS011;1463;51.070;16.998;2023-06-22T14:28:21;5.37;;;3.73;;
2906;SDS011;1463;51.070;16.998;2023-06-22T14:30:48;6.63;;;4.37;;
2906;SDS011;1463;51.070;16.998;2023-06-22T14:33:16;5.33;;;3.83;;
2906;SDS011;1463;51.070;16.998;2023-06-22T14:35:43;4.60;;;3.63;;
2906;SDS011;1463;51.070;16.998;2023-06-22T14:38:12;6.80;;;5.00;;
2906;SDS011;1463;51.070;16.998;2023-06-22T14:40:40;5.00;;;3.73;;
2906;SDS011;1463;51.070;16.998;2023-06-22T14:43:07;5.40;;;3.90;;
2906;SDS011;1463;51.070;16.998;2023-06-22T14:45:34;4.77;;;3.80;;
2906;SDS011;1463;51.070;16.998;2023-06-22T14:48:02;5.43;;;3.93;;
2906;SDS011;1463;51.070;16.998;2023-06-22T14:50:29;5.40;;;3.90;;
2906;SDS011;1463;51.070;16.998;2023-06-22T14:52:57;6.30;;;4.40;;
2906;SDS011;1463;51.070;16.998;2023-06-22T14:55:27;5.70;;;4.20;;
2906;SDS011;1463;51.070;16.998;2023-06-22T14:57:54;6.70;;;4.90;;
2906;SDS011;1463;51.070;16.998;2023-06-22T15:00:21;4.93;;;4.20;;
2906;SDS011;1463;51.070;16.998;2023-06-22T15:02:49;5.60;;;4.13;;